Time;durP1;ratioP1;P1;durP2;ratioP2;P2;SDS_P1;SDS_P2;PMS_P1;PMS_P2;Temp;Humidity;BMP_temperature;BMP_pressure;BME280_temperature;BME280_humidity;BME280_pressure;Samples;Min_cycle;Max_cycle;Signal;HPM_P1;HPM_P2
2024/02/27 00:01:14;;;;;;;2.25;1.00;;;4.50;1.00;;;;;;5029115;28;20048;-84
2024/02/27 00:03:42;;;;;;;2.50;0.82;;;4.50;1.00;;;;;;5019532;28;20053;-84
2024/02/27 00:06:09;;;;;;;4.93;1.20;;;4.50;1.00;;;;;;4992745;28;20080;-84
2024/02/27 00:08:36;;;;;;;3.40;0.98;;;4.60;1.00;;;;;;5026733;28;20682;-84
2024/02/27 00:11:03;;;;;;;3.70;1.35;;;4.60;1.00;;;;;;5028849;28;20075;-84
2024/02/27 00:13:30;;;;;;;2.35;1.92;;;4.70;1.00;;;;;;5013965;28;20427;-84
2024/02/27 00:15:57;;;;;;;2.20;0.75;;;4.70;1.00;;;;;;5013788;28;20061;-84
2024/02/27 00:18:23;;;;;;;2.50;1.00;;;4.70;1.00;;;;;;5030050;28;20095;-84
2024/02/27 00:20:50;;;;;;;2.85;0.90;;;4.70;45.30;;;;;;5030091;28;20665;-84
2024/02/27 00:23:17;;;;;;;2.90;1.10;;;4.80;94.60;;;;;;5030051;28;20528;-84
2024/02/27 00:25:45;;;;;;;1.95;1.10;;;4.80;99.90;;;;;;5029678;28;20049;-84
2024/02/27 00:28:12;;;;;;;1.77;1.08;;;4.80;99.90;;;;;;5012998;28;20412;-84
2024/02/27 00:30:38;;;;;;;4.07;1.40;;;4.90;99.90;;;;;;5010185;28;20057;-84
2024/02/27 00:33:06;;;;;;;2.17;0.90;;;4.90;18.40;;;;;;5015020;28;20056;-84
2024/02/27 00:35:35;;;;;;;4.03;1.00;;;4.90;99.90;;;;;;5029627;28;20053;-85
2024/02/27 00:38:02;;;;;;;1.38;0.65;;;5.00;90.10;;;;;;5029846;28;20320;-85
2024/02/27 00:40:29;;;;;;;2.70;1.00;;;5.00;99.90;;;;;;5012321;28;20053;-83
2024/02/27 00:42:56;;;;;;;2.33;0.90;;;5.00;99.90;;;;;;5029711;28;20053;-84
2024/02/27 00:45:23;;;;;;;1.35;0.68;;;5.00;1.00;;;;;;5029327;28;20049;-84
2024/02/27 00:47:49;;;;;;;1.95;0.77;;;5.00;99.90;;;;;;5026040;28;20046;-84
2024/02/27 00:50:16;;;;;;;2.58;1.27;;;5.00;99.90;;;;;;5014808;28;20427;-85
2024/02/27 00:52:44;;;;;;;1.38;0.70;;;4.90;50.80;;;;;;5028005;28;20049;-85
2024/02/27 00:55:10;;;;;;;0.90;0.60;;;4.90;99.90;;;;;;5012962;28;20056;-85
2024/02/27 00:57:38;;;;;;;2.05;1.00;;;4.80;98.20;;;;;;5025038;28;20157;-85
2024/02/27 01:00:08;;;;;;;0.65;0.52;;;4.70;71.00;;;;;;5033503;28;20445;-85
2024/02/27 01:02:36;;;;;;;2.63;1.52;;;4.60;1.00;;;;;;5023792;28;20459;-84
2024/02/27 01:05:04;;;;;;;2.13;1.10;;;4.60;1.00;;;;;;5026169;28;20084;-84
2024/02/27 01:07:31;;;;;;;2.75;0.93;;;4.50;99.90;;;;;;5027365;28;20103;-85
2024/02/27 01:09:58;;;;;;;1.83;0.90;;;4.50;1.00;;;;;;5029483;28;20070;-84
2024/02/27 01:12:25;;;;;;;2.85;0.80;;;4.50;99.90;;;;;;5024350;28;20064;-84
2024/02/27 01:14:52;;;;;;;2.97;1.05;;;4.40;99.90;;;;;;5025464;28;20132;-85
2024/02/27 01:17:19;;;;;;;2.35;1.02;;;4.40;99.90;;;;;;5026078;28;20049;-85
2024/02/27 01:19:46;;;;;;;2.22;1.05;;;4.30;1.00;;;;;;5025769;28;20502;-85
2024/02/27 01:22:14;;;;;;;2.17;0.90;;;4.30;99.90;;;;;;5009265;28;20081;-84
2024/02/27 01:24:40;;;;;;;1.30;0.85;;;4.30;6.40;;;;;;5025776;28;20049;-84
2024/02/27 01:27:08;;;;;;;2.25;1.00;;;4.30;99.90;;;;;;5008722;28;20065;-84
2024/02/27 01:29:35;;;;;;;2.13;0.90;;;4.30;1.00;;;;;;5028218;28;20382;-84
2024/02/27 01:32:04;;;;;;;1.63;0.98;;;4.30;99.90;;;;;;5045677;28;20133;-84
2024/02/27 01:34:31;;;;;;;3.03;1.20;;;4.30;99.90;;;;;;5028830;28;20049;-84
2024/02/27 01:36:58;;;;;;;2.00;0.80;;;4.30;99.90;;;;;;5024953;28;20057;-84
2024/02/27 01:39:26;;;;;;;2.67;1.00;;;4.30;95.60;;;;;;5010818;28;20060;-85
2024/02/27 01:41:53;;;;;;;2.90;1.40;;;4.30;99.90;;;;;;5044028;28;20487;-85
2024/02/27 01:44:20;;;;;;;1.15;0.75;;;4.30;1.00;;;;;;5028287;28;20508;-85
2024/02/27 01:46:48;;;;;;;2.50;0.93;;;4.40;99.90;;;;;;5029060;28;20140;-85
2024/02/27 01:49:15;;;;;;;1.73;0.80;;;4.40;1.00;;;;;;5028931;28;20118;-84
2024/02/27 01:51:45;;;;;;;1.48;0.55;;;4.40;99.90;;;;;;5008917;28;20049;-85
2024/02/27 01:54:15;;;;;;;1.20;0.70;;;4.40;99.90;;;;;;5005768;28;20287;-85
2024/02/27 01:56:44;;;;;;;1.38;0.60;;;4.40;99.90;;;;;;5008204;28;20140;-85
2024/02/27 01:59:13;;;;;;;2.40;1.42;;;4.50;99.90;;;;;;5008861;28;20080;-84
2024/02/27 02:01:40;;;;;;;1.17;0.65;;;4.50;99.90;;;;;;5044796;28;20069;-84
2024/02/27 02:04:08;;;;;;;1.38;0.60;;;4.50;99.90;;;;;;5026108;28;20776;-84
2024/02/27 02:06:38;;;;;;;2.28;0.63;;;4.50;99.90;;;;;;5044519;28;20128;-84
2024/02/27 02:09:05;;;;;;;0.57;0.50;;;4.50;99.90;;;;;;5011841;28;20053;-84
2024/02/27 02:11:32;;;;;;;1.52;0.60;;;4.60;99.90;;;;;;5006966;28;20048;-84
2024/02/27 02:13:59;;;;;;;1.25;0.80;;;4.60;99.90;;;;;;5035775;28;20462;-84
2024/02/27 02:16:26;;;;;;;0.98;0.60;;;4.60;99.90;;;;;;5027922;28;20049;-84
2024/02/27 02:18:53;;;;;;;0.95;0.85;;;4.60;99.90;;;;;;5044667;28;20059;-85
2024/02/27 02:21:20;;;;;;;2.00;0.80;;;4.70;99.90;;;;;;5027870;28;20424;-84
2024/02/27 02:23:47;;;;;;;1.90;1.00;;;4.60;99.90;;;;;;5028075;28;20053;-85
2024/02/27 02:26:15;;;;;;;0.93;0.80;;;4.60;99.90;;;;;;5007284;28;20045;-84
2024/02/27 02:28:42;;;;;;;3.05;0.95;;;4.60;99.90;;;;;;5024626;28;20065;-85
2024/02/27 02:31:10;;;;;;;1.83;0.75;;;4.60;99.90;;;;;;5025480;28;20128;-85
2024/02/27 02:33:39;;;;;;;2.63;1.00;;;4.60;99.90;;;;;;5027408;28;20136;-84
2024/02/27 02:36:07;;;;;;;2.17;0.70;;;4.50;99.90;;;;;;4994060;28;20077;-84
2024/02/27 02:38:35;;;;;;;1.50;0.88;;;4.50;99.90;;;;;;5009809;28;20061;-85
2024/02/27 02:41:02;;;;;;;1.92;1.17;;;4.50;99.90;;;;;;5016620;28;20069;-84
2024/02/27 02:43:30;;;;;;;2.67;1.17;;;4.50;99.90;;;;;;5028399;28;20049;-85
2024/02/27 02:45:57;;;;;;;2.28;1.20;;;4.50;99.90;;;;;;5030254;28;20080;-83
2024/02/27 02:48:32;;;;;;;2.53;1.15;;;4.50;99.90;;;;;;5030506;28;20045;-85
2024/02/27 02:50:59;;;;;;;2.63;1.13;;;4.50;99.90;;;;;;5046867;28;20460;-84
2024/02/27 02:53:27;;;;;;;1.80;1.13;;;4.50;99.90;;;;;;5043138;28;20069;-84
2024/02/27 02:55:56;;;;;;;1.75;0.90;;;4.50;99.90;;;;;;5026231;28;20484;-85
2024/02/27 02:58:22;;;;;;;2.22;0.70;;;4.50;99.90;;;;;;5026056;28;20045;-85
2024/02/27 03:01:00;;;;;;;2.83;0.90;;;4.50;99.90;;;;;;5039036;28;20525;-84
2024/02/27 03:03:28;;;;;;;1.55;1.20;;;4.50;99.90;;;;;;5035165;28;20045;-83
2024/02/27 03:05:58;;;;;;;1.05;0.88;;;4.40;99.90;;;;;;5010443;28;20052;-83
2024/02/27 03:08:26;;;;;;;2.08;0.93;;;4.40;99.90;;;;;;5002205;28;20100;-85
2024/02/27 03:10:56;;;;;;;2.03;0.95;;;4.40;99.90;;;;;;5039653;28;20380;-85
2024/02/27 03:13:23;;;;;;;1.60;0.85;;;4.40;99.90;;;;;;5030021;28;20407;-85
2024/02/27 03:15:53;;;;;;;1.15;0.85;;;4.40;99.90;;;;;;5013984;28;20053;-85
2024/02/27 03:18:23;;;;;;;0.80;0.80;;;4.40;99.90;;;;;;5013915;28;20122;-85
2024/02/27 03:20:50;;;;;;;2.92;0.93;;;4.40;99.90;;;;;;5046049;28;20059;-84
2024/02/27 03:23:17;;;;;;;1.17;0.63;;;4.40;99.90;;;;;;5018635;28;20290;-84
2024/02/27 03:25:44;;;;;;;2.30;0.68;;;4.40;99.90;;;;;;5009280;28;20050;-85
2024/02/27 03:28:13;;;;;;;0.70;0.50;;;4.30;99.90;;;;;;4996893;28;20045;-85
2024/02/27 03:30:40;;;;;;;0.50;0.50;;;4.30;99.90;;;;;;5004588;28;20049;-84
2024/02/27 03:33:08;;;;;;;1.95;0.90;;;4.20;99.90;;;;;;5033421;28;20125;-84
2024/02/27 03:35:38;;;;;;;0.80;0.38;;;4.20;99.90;;;;;;4998751;28;20121;-84
2024/02/27 03:38:05;;;;;;;1.30;0.65;;;4.20;99.90;;;;;;5015445;28;20065;-85
2024/02/27 03:40:33;;;;;;;1.08;0.65;;;4.20;99.90;;;;;;5006071;28;20072;-84
2024/02/27 03:43:01;;;;;;;0.90;0.60;;;4.20;99.90;;;;;;5040486;28;20059;-84
2024/02/27 03:45:28;;;;;;;0.90;0.60;;;4.20;99.90;;;;;;5033480;28;20212;-83
2024/02/27 03:47:55;;;;;;;0.90;0.60;;;4.10;99.90;;;;;;5019190;28;20041;-84
2024/02/27 03:50:24;;;;;;;0.77;0.50;;;4.10;99.90;;;;;;5022702;28;20491;-84
2024/02/27 03:52:52;;;;;;;0.65;0.50;;;4.10;99.90;;;;;;5002736;28;20537;-85
2024/02/27 03:55:20;;;;;;;1.17;0.60;;;4.00;99.90;;;;;;5046687;28;20048;-84
2024/02/27 03:57:49;;;;;;;1.10;0.70;;;4.00;99.90;;;;;;5030359;28;20045;-84
2024/02/27 04:00:18;;;;;;;1.40;0.70;;;4.00;99.90;;;;;;5030959;28;20053;-84
2024/02/27 04:02:47;;;;;;;2.40;0.57;;;4.00;99.90;;;;;;5016696;28;20049;-84
2024/02/27 04:05:15;;;;;;;0.73;0.70;;;4.00;99.90;;;;;;5033355;28;20053;-85
2024/02/27 04:07:51;;;;;;;0.50;0.50;;;4.00;99.90;;;;;;5033886;28;20460;-85
2024/02/27 04:10:19;;;;;;;2.15;0.70;;;4.00;99.90;;;;;;5013592;28;20407;-84
2024/02/27 04:12:47;;;;;;;0.93;0.52;;;4.10;99.90;;;;;;4997430;28;20057;-84
2024/02/27 04:15:16;;;;;;;0.52;0.40;;;4.10;99.90;;;;;;5013526;28;20050;-85
2024/02/27 04:17:44;;;;;;;0.40;0.40;;;4.10;99.90;;;;;;5029951;28;20046;-84
2024/02/27 04:20:11;;;;;;;0.60;0.50;;;4.10;99.90;;;;;;5030435;28;20231;-85
2024/02/27 04:22:38;;;;;;;0.50;0.50;;;4.20;99.90;;;;;;5029559;28;20045;-84
2024/02/27 04:25:05;;;;;;;0.68;0.60;;;4.20;99.90;;;;;;5013488;28;20120;-85
2024/02/27 04:27:32;;;;;;;1.33;0.60;;;4.20;99.90;;;;;;5012751;28;20111;-85
2024/02/27 04:30:00;;;;;;;0.40;0.40;;;4.20;99.90;;;;;;5017094;28;20063;-84
2024/02/27 04:32:31;;;;;;;0.70;0.40;;;4.20;99.90;;;;;;5030210;28;20068;-85
2024/02/27 04:34:59;;;;;;;0.50;0.40;;;4.10;99.90;;;;;;5030155;28;20647;-86
2024/02/27 04:37:27;;;;;;;0.40;0.40;;;4.10;99.90;;;;;;5029471;28;20127;-86
2024/02/27 04:39:57;;;;;;;0.65;0.50;;;4.10;99.90;;;;;;5015525;28;20060;-85
2024/02/27 04:42:23;;;;;;;0.50;0.50;;;4.00;99.90;;;;;;5046664;28;20477;-85
2024/02/27 04:44:51;;;;;;;0.50;0.50;;;4.00;99.90;;;;;;5029629;28;20131;-83
2024/02/27 04:47:18;;;;;;;1.20;0.50;;;3.90;99.90;;;;;;5013154;28;20514;-85
2024/02/27 04:49:46;;;;;;;0.60;0.47;;;3.80;99.90;;;;;;5030558;28;20049;-84
2024/02/27 04:52:20;;;;;;;0.30;0.30;;;3.80;99.90;;;;;;5033305;28;20049;-84
2024/02/27 04:54:47;;;;;;;0.50;0.50;;;3.70;99.90;;;;;;5032759;28;20045;-85
2024/02/27 04:57:15;;;;;;;0.30;0.30;;;3.70;99.90;;;;;;5016204;28;20057;-85
2024/02/27 04:59:44;;;;;;;0.43;0.43;;;3.70;99.90;;;;;;5032756;28;20612;-85
2024/02/27 05:02:11;;;;;;;0.85;0.85;;;3.60;99.90;;;;;;4997377;28;20041;-85
2024/02/27 05:04:38;;;;;;;0.30;0.30;;;3.50;99.90;;;;;;5032787;28;20056;-85
2024/02/27 05:07:06;;;;;;;1.02;1.02;;;3.40;99.90;;;;;;5030622;28;20053;-84
2024/02/27 05:09:37;;;;;;;0.55;0.45;;;3.30;99.90;;;;;;5012996;28;20055;-84
2024/02/27 05:12:05;;;;;;;0.70;0.52;;;3.30;99.90;;;;;;5027418;28;20412;-85
2024/02/27 05:14:33;;;;;;;0.40;0.40;;;3.30;99.90;;;;;;5029605;28;20144;-85
2024/02/27 05:17:02;;;;;;;0.40;0.40;;;3.30;99.90;;;;;;5046644;28;20077;-85
2024/02/27 05:19:30;;;;;;;0.63;0.50;;;3.40;99.90;;;;;;5015127;28;20084;-85
2024/02/27 05:22:00;;;;;;;0.55;0.45;;;3.40;99.90;;;;;;5028686;28;20098;-84
2024/02/27 05:24:28;;;;;;;0.60;0.50;;;3.50;99.90;;;;;;5012322;28;20111;-83
2024/02/27 05:26:57;;;;;;;0.52;0.52;;;3.50;99.90;;;;;;5011093;28;20057;-85
2024/02/27 05:29:25;;;;;;;0.47;0.47;;;3.60;99.90;;;;;;4996043;28;20133;-84
2024/02/27 05:31:52;;;;;;;1.45;0.88;;;3.60;99.90;;;;;;5045167;28;20060;-85
2024/02/27 05:34:20;;;;;;;1.10;0.80;;;3.70;99.90;;;;;;5013094;28;20204;-85
2024/02/27 05:36:50;;;;;;;1.77;0.90;;;3.70;99.90;;;;;;5011924;28;20518;-84
2024/02/27 05:39:18;;;;;;;1.27;0.80;;;3.70;99.90;;;;;;5027987;28;20099;-85
2024/02/27 05:41:51;;;;;;;2.33;0.85;;;3.70;99.90;;;;;;5028934;28;20151;-84
2024/02/27 05:44:19;;;;;;;0.70;0.70;;;3.80;99.90;;;;;;5026407;28;20138;-85
2024/02/27 05:46:51;;;;;;;2.05;1.08;;;3.80;99.90;;;;;;5027264;28;20713;-85
2024/02/27 05:49:26;;;;;;;1.42;0.93;;;3.80;99.90;;;;;;5020202;28;20056;-83
2024/02/27 05:51:54;;;;;;;1.80;1.05;;;3.80;99.90;;;;;;5022899;28;20052;-85
2024/02/27 05:54:21;;;;;;;2.78;1.13;;;3.80;99.90;;;;;;5037499;28;20128;-84
2024/02/27 05:56:48;;;;;;;1.35;1.10;;;3.90;99.90;;;;;;5027595;28;20057;-83
2024/02/27 05:59:16;;;;;;;2.42;1.65;;;3.90;99.90;;;;;;5028295;28;20060;-84
2024/02/27 06:01:43;;;;;;;1.52;1.17;;;3.90;99.90;;;;;;5023748;28;20128;-84
2024/02/27 06:04:10;;;;;;;3.15;1.25;;;3.90;99.90;;;;;;5027786;28;20594;-85
2024/02/27 06:06:37;;;;;;;1.85;1.30;;;3.90;99.90;;;;;;5000448;28;20519;-85
2024/02/27 06:09:07;;;;;;;1.73;1.08;;;3.90;99.90;;;;;;5031404;28;20411;-85
2024/02/27 06:11:34;;;;;;;2.60;1.50;;;3.90;99.90;;;;;;4999888;28;20067;-83
2024/02/27 06:14:02;;;;;;;2.42;1.40;;;3.90;99.90;;;;;;4999118;28;20049;-84
2024/02/27 06:16:29;;;;;;;2.20;1.25;;;3.90;99.90;;;;;;5016888;28;20056;-84
2024/02/27 06:18:56;;;;;;;1.75;1.05;;;3.90;99.90;;;;;;5000896;28;20063;-84
2024/02/27 06:24:09;;;;;;;1.45;0.80;;;3.80;99.90;;;;;;5029724;28;20106;-84
2024/02/27 06:26:36;;;;;;;1.45;1.17;;;3.70;99.90;;;;;;5031775;28;20491;-83
2024/02/27 06:29:03;;;;;;;1.27;0.80;;;3.60;99.90;;;;;;5030489;28;20045;-84
2024/02/27 06:31:31;;;;;;;0.98;0.75;;;3.50;99.90;;;;;;5015948;28;20049;-84
2024/02/27 06:33:58;;;;;;;0.93;0.80;;;3.40;99.90;;;;;;5016632;28;20056;-83
2024/02/27 06:36:25;;;;;;;1.13;0.60;;;3.40;99.90;;;;;;5032943;28;20055;-83
2024/02/27 06:38:55;;;;;;;2.17;0.90;;;3.40;99.90;;;;;;4999425;28;20404;-83
2024/02/27 06:41:26;;;;;;;0.82;0.70;;;3.30;99.90;;;;;;5022247;28;20049;-84
2024/02/27 06:43:52;;;;;;;0.82;0.73;;;3.20;99.90;;;;;;5018405;28;20153;-81
2024/02/27 06:46:20;;;;;;;0.52;0.50;;;3.20;99.90;;;;;;5006699;28;20064;-84
2024/02/27 06:48:47;;;;;;;0.60;0.60;;;3.10;99.90;;;;;;5007473;28;20415;-83
2024/02/27 06:51:15;;;;;;;0.80;0.70;;;3.00;99.90;;;;;;5039215;28;20143;-84
2024/02/27 06:53:42;;;;;;;0.70;0.70;;;2.90;99.90;;;;;;5020937;28;20045;-83
2024/02/27 06:56:09;;;;;;;0.60;0.60;;;2.90;99.90;;;;;;4995368;28;20053;-84
2024/02/27 06:58:36;;;;;;;0.68;0.63;;;2.90;99.90;;;;;;5005581;28;20051;-83
2024/02/27 07:01:03;;;;;;;1.65;1.35;;;2.90;99.90;;;;;;5008665;28;20052;-83
2024/02/27 07:03:30;;;;;;;0.70;0.70;;;2.90;99.90;;;;;;5024354;28;20105;-83
2024/02/27 07:06:00;;;;;;;0.60;0.60;;;2.90;99.90;;;;;;4998340;28;20108;-83
2024/02/27 07:08:27;;;;;;;0.75;0.70;;;2.90;99.90;;;;;;5028527;28;20067;-84
2024/02/27 07:10:54;;;;;;;0.90;0.80;;;2.90;99.90;;;;;;5026008;28;20056;-84
2024/02/27 07:13:21;;;;;;;1.73;1.02;;;2.90;99.90;;;;;;5014808;28;20059;-81
2024/02/27 07:15:49;;;;;;;1.20;0.70;;;2.90;99.90;;;;;;5007032;28;20095;-80
2024/02/27 07:18:16;;;;;;;1.13;1.00;;;2.90;99.90;;;;;;4999580;28;20049;-81
2024/02/27 07:20:43;;;;;;;1.33;0.90;;;2.90;99.90;;;;;;5017541;28;20119;-81
2024/02/27 07:23:14;;;;;;;2.05;0.75;;;2.90;99.90;;;;;;5009409;28;20049;-82
2024/02/27 07:25:41;;;;;;;0.57;0.57;;;3.00;99.90;;;;;;5018479;28;20123;-81
2024/02/27 07:28:08;;;;;;;1.02;0.77;;;3.00;99.90;;;;;;4987628;28;20280;-81
2024/02/27 07:30:48;;;;;;;0.80;0.70;;;3.10;99.90;;;;;;5019217;28;20106;-82
2024/02/27 07:33:15;;;;;;;0.60;0.60;;;3.20;99.90;;;;;;5013496;28;20137;-81
2024/02/27 07:35:42;;;;;;;0.65;0.65;;;3.30;99.90;;;;;;5020385;28;20045;-81
2024/02/27 07:38:09;;;;;;;0.77;0.70;;;3.30;99.90;;;;;;5017614;28;20127;-81
2024/02/27 07:40:37;;;;;;;1.13;0.70;;;3.40;99.90;;;;;;5017934;28;20861;-82
2024/02/27 07:43:04;;;;;;;0.80;0.70;;;3.50;99.90;;;;;;5004448;28;20045;-81
2024/02/27 07:45:33;;;;;;;1.15;0.73;;;3.60;99.90;;;;;;5033127;28;20053;-81
2024/02/27 07:48:00;;;;;;;1.50;0.73;;;3.70;99.90;;;;;;5030440;28;20045;-81
2024/02/27 07:50:27;;;;;;;1.13;0.82;;;3.70;99.90;;;;;;5022763;28;20483;-81
2024/02/27 07:52:56;;;;;;;0.98;0.90;;;3.80;99.90;;;;;;5001114;28;20053;-80
2024/02/27 07:55:23;;;;;;;0.93;0.80;;;3.90;99.90;;;;;;5026772;28;20045;-81
2024/02/27 07:57:50;;;;;;;1.00;0.80;;;4.00;99.90;;;;;;5013418;28;20517;-81
2024/02/27 08:00:17;;;;;;;0.68;0.63;;;4.10;99.90;;;;;;5032056;28;20401;-80
2024/02/27 08:02:44;;;;;;;0.60;0.60;;;4.10;99.90;;;;;;5033415;28;20141;-81
2024/02/27 08:05:11;;;;;;;0.63;0.63;;;4.20;99.90;;;;;;5021503;28;20046;-81
2024/02/27 08:07:38;;;;;;;0.63;0.63;;;4.30;99.90;;;;;;4998431;28;20463;-82
2024/02/27 08:10:06;;;;;;;0.85;0.70;;;4.30;99.90;;;;;;5034283;28;20071;-81
2024/02/27 08:12:33;;;;;;;0.73;0.73;;;4.40;99.90;;;;;;5025874;28;20464;-82
2024/02/27 08:15:00;;;;;;;0.80;0.60;;;4.50;99.90;;;;;;5010557;28;20411;-82
2024/02/27 08:17:27;;;;;;;0.82;0.75;;;4.50;99.90;;;;;;5028075;28;20673;-81
2024/02/27 08:19:54;;;;;;;0.70;0.70;;;4.60;99.90;;;;;;5025388;28;20358;-82
2024/02/27 08:22:21;;;;;;;2.05;0.70;;;4.70;99.90;;;;;;5024399;28;20120;-80
2024/02/27 08:24:48;;;;;;;1.15;0.90;;;4.80;99.90;;;;;;5021604;28;20041;-81
2024/02/27 08:27:15;;;;;;;0.90;0.80;;;4.80;99.90;;;;;;5017042;28;20235;-81
2024/02/27 08:29:42;;;;;;;1.65;1.10;;;4.90;99.90;;;;;;5000702;28;20064;-81
2024/02/27 08:32:09;;;;;;;1.00;0.90;;;5.00;99.90;;;;;;5040054;28;20041;-82
2024/02/27 08:34:36;;;;;;;1.58;1.02;;;5.10;99.90;;;;;;4995700;28;20558;-81
2024/02/27 08:37:03;;;;;;;2.00;1.35;;;5.10;99.90;;;;;;4992510;28;20080;-81
2024/02/27 08:39:30;;;;;;;1.60;1.25;;;5.10;99.90;;;;;;5008305;28;20053;-81
2024/02/27 08:41:56;;;;;;;1.77;1.20;;;5.20;99.90;;;;;;5022941;28;20052;-81
2024/02/27 08:44:23;;;;;;;1.70;1.15;;;5.20;99.90;;;;;;5022319;28;20171;-82
2024/02/27 08:46:51;;;;;;;2.17;1.30;;;5.30;99.90;;;;;;5009657;28;20060;-81
2024/02/27 08:49:18;;;;;;;1.95;1.50;;;5.40;99.90;;;;;;5013811;28;20467;-82
2024/02/27 08:51:45;;;;;;;1.80;1.23;;;5.50;99.90;;;;;;4998862;28;20064;-82
2024/02/27 08:54:12;;;;;;;2.10;1.42;;;5.50;99.90;;;;;;5026418;28;20049;-82
2024/02/27 08:56:39;;;;;;;1.90;1.15;;;5.60;99.90;;;;;;5009174;28;20087;-82
2024/02/27 08:59:07;;;;;;;1.52;1.10;;;5.70;99.90;;;;;;5038718;28;20679;-80
2024/02/27 09:01:34;;;;;;;1.08;0.98;;;5.90;99.90;;;;;;5025023;28;20049;-82
2024/02/27 09:04:01;;;;;;;1.40;0.75;;;5.90;99.90;;;;;;4996678;28;20041;-82
2024/02/27 09:06:28;;;;;;;1.48;1.02;;;6.00;99.90;;;;;;5013670;28;20053;-82
2024/02/27 09:08:55;;;;;;;1.33;1.00;;;6.10;99.90;;;;;;5002912;28;20056;-82
2024/02/27 09:11:22;;;;;;;1.42;1.17;;;6.10;99.90;;;;;;4995246;28;20068;-82
2024/02/27 09:13:49;;;;;;;1.67;1.38;;;6.10;99.90;;;;;;5007824;28;20046;-82
2024/02/27 09:16:16;;;;;;;1.38;1.20;;;6.20;99.90;;;;;;5009715;28;20468;-82
2024/02/27 09:18:44;;;;;;;1.90;1.20;;;6.30;99.90;;;;;;5032788;28;20052;-82
2024/02/27 09:21:12;;;;;;;1.80;1.00;;;6.30;99.90;;;;;;5001699;28;20049;-82
2024/02/27 09:23:39;;;;;;;1.48;1.20;;;6.40;99.90;;;;;;5011949;28;20108;-82
2024/02/27 09:26:06;;;;;;;1.92;1.52;;;6.40;99.90;;;;;;5016948;28;20127;-82
2024/02/27 09:28:33;;;;;;;1.55;1.33;;;6.50;99.90;;;;;;5034722;28;20057;-84
2024/02/27 09:31:02;;;;;;;1.60;1.23;;;6.50;99.90;;;;;;5005610;28;20045;-82
2024/02/27 09:33:30;;;;;;;1.80;1.42;;;6.60;99.90;;;;;;5015349;28;20056;-82
2024/02/27 09:35:57;;;;;;;1.38;1.27;;;6.70;99.90;;;;;;5003616;28;20132;-84
2024/02/27 09:38:24;;;;;;;1.90;1.30;;;6.70;99.90;;;;;;5032097;28;20069;-82
2024/02/27 09:40:54;;;;;;;1.95;1.45;;;6.90;99.90;;;;;;5016111;28;20422;-82
2024/02/27 09:43:24;;;;;;;2.20;1.67;;;6.90;99.90;;;;;;5014409;28;20068;-82
2024/02/27 09:45:51;;;;;;;2.38;1.50;;;7.00;99.90;;;;;;4987207;28;20103;-79
2024/02/27 09:48:21;;;;;;;3.35;1.70;;;7.00;99.90;;;;;;5019568;28;20084;-80
2024/02/27 09:50:49;;;;;;;3.85;2.58;;;7.00;99.90;;;;;;5001852;28;20080;-80
2024/02/27 09:53:17;;;;;;;2.80;2.47;;;7.00;99.90;;;;;;4996888;28;20445;-80
2024/02/27 09:55:44;;;;;;;3.15;2.13;;;7.10;99.90;;;;;;5014848;28;20053;-80
2024/02/27 09:58:11;;;;;;;3.65;2.17;;;7.10;99.90;;;;;;5022186;28;20087;-81
2024/02/27 10:00:38;;;;;;;2.15;1.80;;;7.10;99.90;;;;;;5021302;28;20049;-80
2024/02/27 10:03:05;;;;;;;2.58;1.77;;;7.10;99.90;;;;;;5006024;28;20397;-80
2024/02/27 10:05:32;;;;;;;2.40;1.83;;;7.10;99.90;;;;;;5022141;28;20524;-80
2024/02/27 10:08:00;;;;;;;3.25;1.75;;;7.20;99.90;;;;;;5006543;28;20053;-80
2024/02/27 10:10:28;;;;;;;1.75;1.63;;;7.30;99.90;;;;;;4995502;28;20095;-81
2024/02/27 10:12:55;;;;;;;2.00;1.75;;;7.40;99.90;;;;;;5005959;28;20115;-80
2024/02/27 10:15:21;;;;;;;2.60;1.63;;;7.60;99.90;;;;;;5004597;28;20061;-80
2024/02/27 10:17:49;;;;;;;2.15;1.75;;;7.70;99.90;;;;;;5004676;28;20052;-80
2024/02/27 10:20:17;;;;;;;2.00;1.58;;;7.70;99.90;;;;;;5012461;28;20511;-80
2024/02/27 10:22:45;;;;;;;1.90;1.30;;;7.70;99.90;;;;;;5022548;28;20044;-80
2024/02/27 10:25:14;;;;;;;1.45;1.30;;;7.80;99.90;;;;;;5022775;28;20065;-80
2024/02/27 10:27:42;;;;;;;2.17;1.40;;;7.90;99.90;;;;;;5005699;28;20053;-80
2024/02/27 10:30:10;;;;;;;2.42;1.58;;;8.00;99.90;;;;;;5003645;28;20144;-80
2024/02/27 10:32:39;;;;;;;1.50;1.30;;;8.10;99.90;;;;;;5022476;28;20053;-80
2024/02/27 10:35:07;;;;;;;1.30;1.00;;;8.20;99.90;;;;;;5039148;28;20051;-81
2024/02/27 10:37:35;;;;;;;1.10;1.00;;;8.40;99.90;;;;;;5022381;28;20064;-80
2024/02/27 10:40:06;;;;;;;1.23;1.00;;;8.40;99.90;;;;;;5021551;28;20139;-80
2024/02/27 10:42:33;;;;;;;0.90;0.90;;;8.50;99.90;;;;;;5040598;28;20392;-80
2024/02/27 10:45:00;;;;;;;1.25;1.08;;;8.60;99.90;;;;;;5042357;28;20435;-80
2024/02/27 10:47:27;;;;;;;1.50;1.10;;;8.70;99.90;;;;;;5023802;28;20061;-81
2024/02/27 10:49:55;;;;;;;0.82;0.80;;;8.90;99.90;;;;;;5002603;28;20053;-80
2024/02/27 10:52:26;;;;;;;1.08;0.98;;;9.00;99.90;;;;;;5005226;28;20048;-80
2024/02/27 10:54:53;;;;;;;1.10;0.93;;;9.10;99.90;;;;;;5026140;28;20126;-80
2024/02/27 10:57:20;;;;;;;1.83;1.10;;;9.10;99.90;;;;;;5024297;28;20084;-80
2024/02/27 10:59:47;;;;;;;1.15;1.05;;;9.20;99.90;;;;;;5025120;28;20049;-81
2024/02/27 11:02:18;;;;;;;1.00;0.90;;;9.20;99.90;;;;;;5007180;28;20132;-81
2024/02/27 11:04:46;;;;;;;1.33;1.23;;;9.20;99.90;;;;;;5025337;28;20281;-80
2024/02/27 11:07:15;;;;;;;1.38;1.02;;;9.20;99.90;;;;;;5039489;28;20122;-81
2024/02/27 11:09:45;;;;;;;2.60;0.98;;;9.20;99.90;;;;;;5019759;28;20061;-80
2024/02/27 11:12:14;;;;;;;1.63;1.20;;;9.20;99.90;;;;;;5019658;28;20053;-80
2024/02/27 11:14:45;;;;;;;0.88;0.70;;;9.30;99.90;;;;;;5038337;28;20052;-81
2024/02/27 11:17:21;;;;;;;1.05;0.95;;;9.50;99.90;;;;;;5022241;28;20052;-80
2024/02/27 11:19:52;;;;;;;1.40;0.93;;;9.40;99.90;;;;;;5036628;28;20055;-80
2024/02/27 11:22:21;;;;;;;1.45;1.08;;;9.40;99.90;;;;;;5035397;28;20056;-80
2024/02/27 11:24:48;;;;;;;1.40;1.02;;;9.30;99.90;;;;;;5005541;28;20180;-80
2024/02/27 11:27:19;;;;;;;2.33;0.95;;;9.30;99.90;;;;;;5004094;28;20056;-80
2024/02/27 11:29:46;;;;;;;1.17;0.90;;;9.30;99.90;;;;;;5024200;28;20049;-80
2024/02/27 11:32:13;;;;;;;1.27;1.10;;;9.30;99.90;;;;;;5023639;28;20057;-80
2024/02/27 11:34:40;;;;;;;2.88;1.00;;;9.30;99.90;;;;;;5005239;28;20110;-80
2024/02/27 11:37:09;;;;;;;1.42;1.13;;;9.30;99.90;;;;;;4987493;28;20395;-81
2024/02/27 11:39:36;;;;;;;1.27;0.95;;;9.40;99.90;;;;;;5038304;28;20419;-80
2024/02/27 11:42:05;;;;;;;1.10;1.00;;;9.50;99.90;;;;;;5018467;28;20074;-80
2024/02/27 11:44:32;;;;;;;1.67;1.20;;;9.60;99.90;;;;;;5018468;28;20506;-81
2024/02/27 11:47:03;;;;;;;1.88;1.15;;;9.50;99.90;;;;;;5008515;28;20102;-80
2024/02/27 11:49:41;;;;;;;1.13;1.00;;;9.50;99.90;;;;;;5001895;28;20103;-81
2024/02/27 11:52:09;;;;;;;1.20;1.10;;;9.50;99.90;;;;;;5032831;28;20057;-81
2024/02/27 11:54:36;;;;;;;1.83;1.20;;;9.50;99.90;;;;;;5015407;28;20053;-83
2024/02/27 11:57:03;;;;;;;1.58;1.02;;;9.50;99.90;;;;;;5031436;28;20037;-83
2024/02/27 11:59:32;;;;;;;1.42;0.90;;;9.50;99.90;;;;;;4991961;28;20455;-82
2024/02/27 12:02:06;;;;;;;1.30;1.02;;;9.60;99.90;;;;;;5012705;28;20053;-82
2024/02/27 12:04:33;;;;;;;0.98;0.85;;;9.70;99.90;;;;;;4999785;28;20107;-81
2024/02/27 12:07:00;;;;;;;1.40;1.00;;;9.70;99.90;;;;;;5022376;28;20574;-81
2024/02/27 12:09:27;;;;;;;1.10;0.90;;;9.70;99.90;;;;;;5011298;28;20381;-82
2024/02/27 12:11:54;;;;;;;1.50;0.90;;;9.70;99.90;;;;;;5012745;28;20110;-82
2024/02/27 12:14:20;;;;;;;1.48;1.10;;;9.70;99.90;;;;;;4997284;28;20041;-83
2024/02/27 12:16:47;;;;;;;1.73;1.00;;;9.80;99.90;;;;;;5015149;28;20419;-83
2024/02/27 12:19:14;;;;;;;1.33;1.08;;;9.80;1.00;;;;;;4998735;28;20076;-81
2024/02/27 12:21:42;;;;;;;1.35;0.95;;;9.80;1.00;;;;;;5006633;28;20143;-82
2024/02/27 12:24:16;;;;;;;1.35;1.00;;;9.80;1.00;;;;;;5020852;28;20114;-82
2024/02/27 12:26:43;;;;;;;1.25;1.15;;;10.00;1.00;;;;;;4989476;28;20499;-82
2024/02/27 12:29:11;;;;;;;1.52;1.15;;;10.20;1.00;;;;;;5012816;28;20049;-81
2024/02/27 12:31:37;;;;;;;1.40;1.08;;;10.20;1.00;;;;;;5021565;28;20064;-82
2024/02/27 12:34:07;;;;;;;1.23;1.00;;;10.30;1.00;;;;;;5018620;28;20049;-83
2024/02/27 12:36:35;;;;;;;1.35;1.10;;;10.50;1.00;;;;;;5031868;28;20377;-82
2024/02/27 12:39:02;;;;;;;1.58;1.27;;;10.50;1.00;;;;;;5011064;28;20057;-82
2024/02/27 12:41:29;;;;;;;1.35;1.08;;;10.60;1.00;;;;;;4999671;28;20125;-83
2024/02/27 12:43:57;;;;;;;1.85;1.17;;;10.60;1.00;;;;;;5015067;28;20057;-83
2024/02/27 12:46:24;;;;;;;1.77;1.55;;;10.50;1.00;;;;;;5011193;28;20480;-82
2024/02/27 12:48:54;;;;;;;1.42;1.30;;;10.60;1.00;;;;;;5013331;28;20128;-82
2024/02/27 12:51:21;;;;;;;1.77;1.20;;;10.70;1.00;;;;;;5011038;28;20110;-82
2024/02/27 12:53:48;;;;;;;1.02;0.90;;;10.70;1.00;;;;;;5021520;28;20045;-82
2024/02/27 12:56:15;;;;;;;1.35;1.08;;;10.70;1.00;;;;;;4991082;28;20060;-82
2024/02/27 12:58:42;;;;;;;2.00;1.13;;;10.80;1.00;;;;;;5023209;28;20041;-83
2024/02/27 13:01:10;;;;;;;1.98;1.35;;;10.90;1.00;;;;;;4998738;28;20053;-82
2024/02/27 13:03:38;;;;;;;2.03;1.30;;;10.80;1.00;;;;;;5029759;28;20099;-82